Ijamsville, Maryland
Current Conditions -  °F | °C
As of 11:45 AM on Saturday 22 Nov 2014 (Local Time) from KFDK Reporting Station
Clear Clear  
Wind Chill: 39°   Ceiling: Unl
Heat Index: 45°   Visibility: 10mi
Dew Point: 10°   Wind: 10mph
Humidity: 25%   Direction: 210°SSW
Pressure: 30.43"   Gusts: 16mph
Location:  39.36°N, 77.32°W
Report Text: KFDK 221645Z 21009G14KT 10SM SKC 07/M12 A3043
Loading
Personal Weather Stations






























Interactive Weather Map New forecast layout! Learn more

10-Day Weather Forecast

Advertisements
Track Severe Weather on mobile